BIF weather

Biggs Army Air Field (Fort Bliss)
Fort Bliss/El Paso, Texas, United States

Public forecast

Using degrees Fahrenheit for public forecast. Weather courtesy of forecast.io.

METAR (pilot weather report)

Retrieved 2019/06/15 21:58 UTC (22 minutes ago):

KBIF 152158Z AUTO 26017G27KT 10SM CLR 34/M06 A2991 RMK AO2 PK WND 23030/46 SLP052 T03401056 $

TAF (pilot weather forecast)

Retrieved 2019/06/15 22:04 UTC (16 minutes ago):

TAF KBIF 152204Z 1522/1704 26015G25KT 9999 SKC QNH2989INS BECMG 1602/1603 VRB06KT 9999 SKC QNH2987INS BECMG 1614/1615 24009KT 9999 SKC QNH2988INS TX34/1620Z TN16/1611Z